Terminal Aerodrome Forecast
Issued by NWS

Home | Current Version | Previous Version | Text Only | Print | Product List | Glossary On
Versions: 1 2 3 4 5 6 7 8 9 10 11 12 13 14 15 16 17 18 19 20 21 22 23 24 25 26 27 28 29
749
FTUS43 KLSX 241914 AAA
TAFSUS
TAF AMD
KSUS 241914Z 2419/2518 04007KT 2SM -RA BR OVC002
     FM242100 13006KT 4SM SHRA VCTS OVC003CB
     FM250000 14008KT 4SM -SHRA OVC003
     FM250200 22008KT 6SM -SHRA OVC008
     FM250400 25014G27KT P6SM BKN015
     FM250700 27015G26KT P6SM SCT015
     FM251200 26007KT P6SM SKC=

USA.gov is the U.S. government's official web portal to all federal, state and local government web resources and services.